createdAt,value
2019-02-23T00:00:02.680Z,103408.47
2019-02-23T00:02:31.827Z,103410.39
2019-02-23T00:05:00.704Z,103410.08
2019-02-23T00:07:30.491Z,103407.63
2019-02-23T00:10:00.660Z,103403.05
2019-02-23T00:12:30.954Z,103402.53
2019-02-23T00:14:59.682Z,103405.31
2019-02-23T00:17:31.692Z,103405.92
2019-02-23T00:20:01.955Z,103410.08
2019-02-23T00:22:34.057Z,103400.76
2019-02-23T00:25:02.605Z,103397.83
2019-02-23T00:27:35.051Z,103390.95
2019-02-23T00:30:03.922Z,103385.87
2019-02-23T00:32:32.841Z,103376.52
2019-02-23T00:35:02.220Z,103381.44
2019-02-23T00:37:32.282Z,103379.83
2019-02-23T00:40:07.442Z,103384.83
2019-02-23T00:42:39.274Z,103386.41
2019-02-23T00:45:08.190Z,103386.13
2019-02-23T00:47:38.673Z,103380.92
2019-02-23T00:50:07.752Z,103394.61
2019-02-23T00:52:37.959Z,103390.83
2019-02-23T00:55:06.993Z,103386.39
2019-02-23T00:57:36.061Z,103388.47
2019-02-23T01:00:07.439Z,103383.64
2019-02-23T01:02:36.741Z,103389.89
2019-02-23T01:05:06.318Z,103381.71
2019-02-23T01:07:38.195Z,103375.32
2019-02-23T01:10:12.093Z,103377.41
2019-02-23T01:12:45.242Z,103378.08
2019-02-23T01:15:19.023Z,103381.18
2019-02-23T01:17:49.531Z,103379.97
2019-02-23T01:20:19.737Z,103382.16
2019-02-23T01:22:48.677Z,103391.58
2019-02-23T01:25:22.387Z,103378.45
2019-02-23T01:27:52.658Z,103363.79
2019-02-23T01:30:22.933Z,103360.95
2019-02-23T01:32:51.900Z,103364.56
2019-02-23T01:35:22.546Z,103365.39
2019-02-23T01:37:52.166Z,103358.23
2019-02-23T01:40:21.242Z,103363.93
2019-02-23T01:42:50.360Z,103359.30
2019-02-23T01:45:22.388Z,103362.25
2019-02-23T01:47:50.964Z,103362.34
2019-02-23T01:50:23.463Z,103349.82
2019-02-23T01:52:55.009Z,103334.92
2019-02-23T01:55:24.119Z,103332.18
2019-02-23T01:57:54.634Z,103321.86
2019-02-23T02:00:24.013Z,103308.48
2019-02-23T02:02:53.132Z,103308.39
2019-02-23T02:05:25.663Z,103305.78
2019-02-23T02:07:56.272Z,103314.64
2019-02-23T02:10:24.817Z,103325.56
2019-02-23T02:12:58.480Z,103326.40
2019-02-23T02:15:27.420Z,103322.38
2019-02-23T02:17:56.528Z,103316.69
2019-02-23T02:20:27.561Z,103309.53
2019-02-23T02:22:59.646Z,103311.41
2019-02-23T02:25:28.704Z,103308.47
2019-02-23T02:27:58.944Z,103297.06
2019-02-23T02:30:27.499Z,103297.70
2019-02-23T02:32:56.960Z,103300.59
2019-02-23T02:35:25.996Z,103294.67
2019-02-23T02:37:55.126Z,103297.70
2019-02-23T02:40:27.598Z,103295.62
2019-02-23T02:42:56.753Z,103296.88
2019-02-23T02:45:28.932Z,103284.37
2019-02-23T02:48:01.182Z,103289.98
2019-02-23T02:50:29.752Z,103281.76
2019-02-23T02:53:02.402Z,103282.20
2019-02-23T02:55:33.276Z,103276.20
2019-02-23T02:58:06.810Z,103269.48
2019-02-23T03:00:36.757Z,103267.08
2019-02-23T03:03:07.614Z,103256.64
2019-02-23T03:05:36.821Z,103246.78
2019-02-23T03:08:05.779Z,103237.86
2019-02-23T03:10:35.685Z,103235.97
2019-02-23T03:13:09.369Z,103239.73
2019-02-23T03:15:40.351Z,103231.28
2019-02-23T03:18:12.800Z,103226.89
2019-02-23T03:20:43.149Z,103228.12
2019-02-23T03:23:12.648Z,103233.55
2019-02-23T03:25:44.068Z,103236.34
2019-02-23T03:28:19.646Z,103232.48
2019-02-23T03:30:51.913Z,103243.44
2019-02-23T03:33:22.155Z,103243.05
2019-02-23T03:35:51.577Z,103246.40
2019-02-23T03:38:25.188Z,103253.41
2019-02-23T03:40:58.926Z,103254.61
2019-02-23T03:43:28.030Z,103264.27
2019-02-23T03:45:58.887Z,103265.67
2019-02-23T03:48:29.599Z,103268.77
2019-02-23T03:51:03.281Z,103277.66
2019-02-23T03:53:32.206Z,103281.71
2019-02-23T03:56:03.284Z,103284.98
2019-02-23T03:58:31.844Z,103291.66
2019-02-23T04:01:01.152Z,103291.80
2019-02-23T04:03:31.559Z,103285.04
2019-02-23T04:06:08.165Z,103280.92
2019-02-23T04:08:39.906Z,103275.70
2019-02-23T04:11:08.827Z,103272.41
2019-02-23T04:13:39.033Z,103275.73
2019-02-23T04:16:12.212Z,103263.90
2019-02-23T04:18:44.058Z,103260.23
2019-02-23T04:21:13.588Z,103261.72
2019-02-23T04:23:44.934Z,103263.27
2019-02-23T04:26:13.688Z,103273.16
2019-02-23T04:28:45.369Z,103273.63
2019-02-23T04:31:13.959Z,103281.97
2019-02-23T04:33:44.859Z,103278.66
2019-02-23T04:36:13.702Z,103282.89
2019-02-23T04:38:42.968Z,103279.93
2019-02-23T04:41:11.892Z,103279.62
2019-02-23T04:43:44.346Z,103275.71
2019-02-23T04:46:13.345Z,103268.27
2019-02-23T04:48:45.653Z,103274.30
2019-02-23T04:51:15.599Z,103272.56
2019-02-23T04:53:45.908Z,103271.38
2019-02-23T04:56:14.886Z,103278.25
2019-02-23T04:58:44.802Z,103279.34
2019-02-23T05:01:13.552Z,103292.78
2019-02-23T05:03:42.263Z,103290.86
2019-02-23T05:06:11.387Z,103294.16
2019-02-23T05:08:40.608Z,103287.19
2019-02-23T05:11:16.302Z,103290.78
2019-02-23T05:13:46.481Z,103305.89
2019-02-23T05:16:20.196Z,103310.02
2019-02-23T05:18:50.897Z,103313.43
2019-02-23T05:21:26.257Z,103313.08
2019-02-23T05:23:53.580Z,103322.45
2019-02-23T05:26:24.338Z,103321.69
2019-02-23T05:28:53.667Z,103331.26
2019-02-23T05:31:23.635Z,103333.61
2019-02-23T05:33:55.742Z,103332.16
2019-02-23T05:36:24.931Z,103329.80
2019-02-23T05:38:54.183Z,103327.63
2019-02-23T05:41:23.000Z,103326.75
2019-02-23T05:43:56.402Z,103336.61
2019-02-23T05:46:27.708Z,103339.42
2019-02-23T05:48:58.863Z,103340.16
2019-02-23T05:51:38.373Z,103342.62
2019-02-23T05:53:58.379Z,103343.70
2019-02-23T05:56:31.104Z,103346.53
2019-02-23T05:59:04.685Z,103342.63
2019-02-23T06:01:33.238Z,103348.59
2019-02-23T06:04:06.853Z,103350.08
2019-02-23T06:06:35.750Z,103356.16
2019-02-23T06:09:07.357Z,103357.34
2019-02-23T06:11:38.861Z,103355.37
2019-02-23T06:14:09.360Z,103361.44
2019-02-23T06:16:43.024Z,103365.02
2019-02-23T06:19:16.477Z,103365.02
2019-02-23T06:21:53.582Z,103359.27
2019-02-23T06:24:18.985Z,103373.81
2019-02-23T06:26:49.918Z,103376.29
2019-02-23T06:29:21.327Z,103369.30
2019-02-23T06:31:53.453Z,103374.93
2019-02-23T06:34:23.964Z,103377.83
2019-02-23T06:36:54.294Z,103367.06
2019-02-23T06:39:27.611Z,103366.58
2019-02-23T06:41:56.700Z,103378.70
2019-02-23T06:44:25.566Z,103384.39
2019-02-23T06:46:54.458Z,103387.12
2019-02-23T06:49:25.940Z,103383.48
2019-02-23T06:52:04.256Z,103393.00
2019-02-23T06:54:34.143Z,103400.31
2019-02-23T06:57:04.390Z,103395.41
2019-02-23T06:59:33.773Z,103397.94
2019-02-23T07:02:07.222Z,103410.39
2019-02-23T07:04:36.734Z,103405.72
2019-02-23T07:07:08.592Z,103393.45
2019-02-23T07:09:40.834Z,103405.27
2019-02-23T07:12:13.050Z,103404.59
2019-02-23T07:14:43.683Z,103396.27
2019-02-23T07:17:20.245Z,103396.78
2019-02-23T07:19:51.078Z,103406.41
2019-02-23T07:22:21.750Z,103412.40
2019-02-23T07:24:52.283Z,103423.69
2019-02-23T07:27:23.579Z,103417.56
2019-02-23T07:29:54.234Z,103415.08
2019-02-23T07:32:24.801Z,103408.89
2019-02-23T07:34:55.521Z,103392.02
2019-02-23T07:37:26.018Z,103391.19
2019-02-23T07:39:54.949Z,103395.35
2019-02-23T07:42:25.278Z,103389.46
2019-02-23T07:44:53.901Z,103388.69
2019-02-23T07:47:29.068Z,103394.92
2019-02-23T07:50:01.529Z,103398.52
2019-02-23T07:52:32.260Z,103383.22
2019-02-23T07:55:04.415Z,103382.89
2019-02-23T07:57:33.804Z,103386.58
2019-02-23T08:00:02.353Z,103377.09
2019-02-23T08:02:31.151Z,103373.38
2019-02-23T08:04:59.812Z,103371.91
2019-02-23T08:07:32.163Z,103370.25
2019-02-23T08:10:05.979Z,103374.59
2019-02-23T08:12:36.348Z,103376.15
2019-02-23T08:15:12.533Z,103368.39
2019-02-23T08:17:43.322Z,103370.26
2019-02-23T08:20:12.457Z,103375.37
2019-02-23T08:22:42.743Z,103374.82
2019-02-23T08:25:11.960Z,103375.02
2019-02-23T08:27:41.560Z,103375.61
2019-02-23T08:30:11.830Z,103377.16
2019-02-23T08:32:44.920Z,103377.64
2019-02-23T08:35:18.967Z,103380.92
2019-02-23T08:37:53.900Z,103379.30
2019-02-23T08:40:22.820Z,103372.25
2019-02-23T08:42:51.893Z,103373.76
2019-02-23T08:45:22.142Z,103369.47
2019-02-23T08:47:51.113Z,103372.33
2019-02-23T08:50:23.118Z,103377.02
2019-02-23T08:52:54.015Z,103367.84
2019-02-23T08:55:27.706Z,103356.64
2019-02-23T08:57:56.607Z,103353.78
2019-02-23T09:00:25.384Z,103350.47
2019-02-23T09:02:53.941Z,103354.66
2019-02-23T09:05:27.407Z,103360.08
2019-02-23T09:08:02.496Z,103359.53
2019-02-23T09:10:31.613Z,103363.67
2019-02-23T09:13:00.538Z,103363.13
2019-02-23T09:15:32.189Z,103358.58
2019-02-23T09:18:01.138Z,103366.87
2019-02-23T09:20:30.211Z,103369.40
2019-02-23T09:23:01.694Z,103361.34
2019-02-23T09:25:30.473Z,103357.84
2019-02-23T09:28:02.601Z,103365.56
2019-02-23T09:30:31.294Z,103363.38
2019-02-23T09:32:59.844Z,103362.04
2019-02-23T09:36:14.993Z,103359.58
2019-02-23T09:39:24.394Z,103364.65
2019-02-23T09:42:23.764Z,103365.06
2019-02-23T09:45:29.042Z,103360.34
2019-02-23T09:48:24.959Z,103359.74
2019-02-23T09:51:18.834Z,103365.37
2019-02-23T09:54:30.732Z,103365.08
2019-02-23T09:57:42.337Z,103368.20
2019-02-23T10:00:11.405Z,103376.45
2019-02-23T10:02:43.868Z,103362.98
2019-02-23T10:05:16.072Z,103358.30
2019-02-23T10:07:46.011Z,103355.73
2019-02-23T10:10:14.990Z,103336.35
2019-02-23T10:12:44.237Z,103323.45
2019-02-23T10:15:16.152Z,103328.34
2019-02-23T10:17:44.709Z,103338.19
2019-02-23T10:20:15.170Z,103340.69
2019-02-23T10:22:43.886Z,103341.05
2019-02-23T10:25:13.028Z,103342.39
2019-02-23T10:27:44.793Z,103340.69
2019-02-23T10:30:34.662Z,103342.81
2019-02-23T10:33:03.209Z,103345.80
2019-02-23T10:35:32.343Z,103352.52
2019-02-23T10:38:04.506Z,103350.55
2019-02-23T10:40:35.465Z,103345.13
2019-02-23T10:43:07.817Z,103327.84
2019-02-23T10:45:38.555Z,103329.36
2019-02-23T10:48:07.458Z,103326.19
2019-02-23T10:50:38.815Z,103318.10
2019-02-23T10:53:11.182Z,103304.14
2019-02-23T10:55:42.825Z,103294.73
2019-02-23T10:58:13.355Z,103289.62
2019-02-23T11:00:43.899Z,103282.92
2019-02-23T11:03:13.065Z,103277.56
2019-02-23T11:05:43.719Z,103271.33
2019-02-23T11:08:15.528Z,103266.71
2019-02-23T11:10:44.637Z,103263.50
2019-02-23T11:13:13.860Z,103268.45
2019-02-23T11:15:43.053Z,103269.31
2019-02-23T11:18:16.674Z,103265.39
2019-02-23T11:20:48.783Z,103260.20
2019-02-23T11:23:19.477Z,103265.06
2019-02-23T11:25:48.370Z,103265.48
2019-02-23T11:28:17.598Z,103255.23
2019-02-23T11:30:47.877Z,103259.44
2019-02-23T11:33:19.169Z,103264.00
2019-02-23T11:35:48.141Z,103262.69
2019-02-23T11:38:18.029Z,103268.91
2019-02-23T11:40:48.133Z,103261.00
2019-02-23T11:43:20.452Z,103253.52
2019-02-23T11:45:49.365Z,103252.25
2019-02-23T11:48:19.953Z,103251.35
2019-02-23T11:50:53.838Z,103248.11
2019-02-23T11:53:24.618Z,103233.98
2019-02-23T11:55:53.187Z,103227.04
2019-02-23T11:58:22.092Z,103221.38
2019-02-23T12:00:52.466Z,103210.43
2019-02-23T12:03:24.085Z,103207.81
2019-02-23T12:05:54.520Z,103212.27
2019-02-23T12:08:23.569Z,103207.84
2019-02-23T12:10:52.469Z,103201.78
2019-02-23T12:13:22.442Z,103203.19
2019-02-23T12:15:51.174Z,103200.27
2019-02-23T12:18:20.084Z,103193.23
2019-02-23T12:20:49.001Z,103191.10
2019-02-23T12:23:21.267Z,103180.61
2019-02-23T12:25:50.025Z,103179.25
2019-02-23T12:28:22.431Z,103170.45
2019-02-23T12:30:54.154Z,103174.41
2019-02-23T12:33:22.758Z,103174.37
2019-02-23T12:35:53.349Z,103174.75
2019-02-23T12:38:23.630Z,103172.48
2019-02-23T12:40:56.178Z,103167.12
2019-02-23T12:43:29.682Z,103165.90
2019-02-23T12:45:59.861Z,103164.12
2019-02-23T12:48:30.799Z,103172.52
2019-02-23T12:50:59.715Z,103169.07
2019-02-23T12:53:29.026Z,103177.39
2019-02-23T12:56:03.940Z,103176.53
2019-02-23T12:58:32.710Z,103173.03
2019-02-23T13:01:06.333Z,103177.92
2019-02-23T13:03:35.593Z,103174.02
2019-02-23T13:06:04.317Z,103174.47
2019-02-23T13:09:08.818Z,103173.62
2019-02-23T13:11:38.988Z,103171.38
2019-02-23T13:14:56.506Z,103171.33
2019-02-23T13:18:01.124Z,103172.59
2019-02-23T13:20:48.185Z,103175.67
2019-02-23T13:23:48.499Z,103168.16
2019-02-23T13:26:43.763Z,103166.84
2019-02-23T13:29:37.565Z,103158.98
2019-02-23T13:32:49.795Z,103158.98
2019-02-23T13:35:55.169Z,103157.27
2019-02-23T13:39:05.761Z,103155.58
2019-02-23T13:41:58.102Z,103158.64
2019-02-23T13:44:55.882Z,103156.95
2019-02-23T13:47:59.392Z,103148.12
2019-02-23T13:50:47.400Z,103147.70
2019-02-23T13:53:53.575Z,103151.17
2019-02-23T13:56:56.672Z,103139.74
2019-02-23T13:59:50.462Z,103137.14
2019-02-23T14:02:59.797Z,103135.37
2019-02-23T14:05:54.175Z,103127.89
2019-02-23T14:08:46.830Z,103125.28
2019-02-23T14:11:52.163Z,103123.09
2019-02-23T14:14:30.697Z,103098.90
2019-02-23T14:17:34.954Z,103098.90
2019-02-23T14:20:53.300Z,103102.41
2019-02-23T14:24:04.985Z,103100.22
2019-02-23T14:27:11.099Z,103096.69
2019-02-23T14:30:19.576Z,103096.24
2019-02-23T14:33:10.324Z,103101.95
2019-02-23T14:36:01.565Z,103086.52
2019-02-23T14:39:10.172Z,103085.66
2019-02-23T14:41:55.661Z,103086.53
2019-02-23T14:44:50.439Z,103085.22
2019-02-23T14:47:53.034Z,103087.86
2019-02-23T14:50:54.004Z,103086.95
2019-02-23T14:53:59.905Z,103086.08
2019-02-23T14:57:02.932Z,103086.51
2019-02-23T15:00:01.765Z,103092.24
2019-02-23T15:03:04.632Z,103079.91
2019-02-23T15:05:58.037Z,103080.77
2019-02-23T15:08:42.348Z,103090.47
2019-02-23T15:11:47.770Z,103094.90
2019-02-23T15:14:51.268Z,103096.66
2019-02-23T15:18:01.457Z,103092.72
2019-02-23T15:21:05.430Z,103096.23
2019-02-23T15:24:04.494Z,103098.47
2019-02-23T15:27:09.090Z,103091.41
2019-02-23T15:30:02.400Z,103096.27
2019-02-23T15:33:05.982Z,103089.64
2019-02-23T15:36:08.668Z,103095.81
2019-02-23T15:39:14.308Z,103095.81
2019-02-23T15:42:13.384Z,103092.73
2019-02-23T15:45:22.220Z,103090.95
2019-02-23T15:48:13.394Z,103085.23
2019-02-23T15:50:45.265Z,103083.47
2019-02-23T15:53:14.550Z,103074.64
2019-02-23T15:55:45.117Z,103072.43
2019-02-23T15:58:13.686Z,103072.43
2019-02-23T16:00:42.730Z,103076.83
2019-02-23T16:03:13.905Z,103068.02
2019-02-23T16:05:46.185Z,103074.65
2019-02-23T16:08:16.352Z,103075.52
2019-02-23T16:10:45.042Z,103075.52
2019-02-23T16:13:18.761Z,103084.80
2019-02-23T16:15:47.076Z,103079.95
2019-02-23T16:18:17.495Z,103072.47
2019-02-23T16:20:46.415Z,103083.05
2019-02-23T16:23:16.374Z,103083.04
2019-02-23T16:25:47.077Z,103085.66
2019-02-23T16:28:15.688Z,103088.74
2019-02-23T16:30:50.930Z,103086.08
2019-02-23T16:33:20.318Z,103085.19
2019-02-23T16:35:51.711Z,103077.66
2019-02-23T16:38:20.593Z,103075.88
2019-02-23T16:40:50.471Z,103069.66
2019-02-23T16:43:22.239Z,103069.66
2019-02-23T16:45:52.178Z,103074.88
2019-02-23T16:48:25.942Z,103076.56
2019-02-23T16:50:56.148Z,103090.95
2019-02-23T16:53:26.976Z,103090.86
2019-02-23T16:55:56.239Z,103092.00
2019-02-23T16:58:25.881Z,103093.12
2019-02-23T17:00:59.060Z,103101.75
2019-02-23T17:03:29.595Z,103103.39
2019-02-23T17:05:59.498Z,103108.58
2019-02-23T17:08:30.377Z,103109.91
2019-02-23T17:11:01.229Z,103106.77
2019-02-23T17:13:31.337Z,103109.29
2019-02-23T17:16:00.721Z,103097.77
2019-02-23T17:18:34.319Z,103099.44
2019-02-23T17:21:06.262Z,103102.89
2019-02-23T17:23:36.795Z,103110.16
2019-02-23T17:26:11.698Z,103100.27
2019-02-23T17:28:41.046Z,103100.97
2019-02-23T17:31:12.077Z,103102.18
2019-02-23T17:33:40.646Z,103108.26
2019-02-23T17:36:10.054Z,103108.11
2019-02-23T17:38:38.636Z,103106.09
2019-02-23T17:41:13.298Z,103097.02
2019-02-23T17:43:48.915Z,103098.09
2019-02-23T17:46:23.115Z,103097.87
2019-02-23T17:48:52.585Z,103099.50
2019-02-23T17:51:26.273Z,103099.84
2019-02-23T17:53:56.722Z,103098.71
2019-02-23T17:56:27.195Z,103097.25
2019-02-23T17:59:01.018Z,103096.61
2019-02-23T18:01:35.839Z,103092.23
2019-02-23T18:04:06.500Z,103104.34
2019-02-23T18:06:35.348Z,103109.11
2019-02-23T18:09:05.769Z,103102.88
2019-02-23T18:11:36.982Z,103107.09
2019-02-23T18:14:05.934Z,103108.35
2019-02-23T18:16:39.060Z,103108.52
2019-02-23T18:19:08.577Z,103104.83
2019-02-23T18:21:39.865Z,103106.80
2019-02-23T18:24:19.126Z,103103.49
2019-02-23T18:26:48.081Z,103095.95
2019-02-23T18:29:18.497Z,103093.80
2019-02-23T18:31:47.429Z,103092.42
2019-02-23T18:34:21.042Z,103094.47
2019-02-23T18:36:50.207Z,103089.17
2019-02-23T18:39:19.297Z,103087.05
2019-02-23T18:41:48.212Z,103089.74
2019-02-23T18:44:25.701Z,103090.04
2019-02-23T18:46:54.807Z,103091.03
2019-02-23T18:49:23.377Z,103093.94
2019-02-23T18:51:54.577Z,103103.23
2019-02-23T18:54:25.674Z,103109.84
2019-02-23T18:56:57.917Z,103114.00
2019-02-23T18:59:28.889Z,103108.88
2019-02-23T19:01:57.961Z,103108.78
2019-02-23T19:04:30.294Z,103108.72
2019-02-23T19:07:02.312Z,103108.59
2019-02-23T19:09:33.823Z,103116.74
2019-02-23T19:12:06.567Z,103112.65
2019-02-23T19:14:41.731Z,103108.29
2019-02-23T19:17:11.627Z,103111.71
2019-02-23T19:19:44.972Z,103107.05
2019-02-23T19:22:15.519Z,103101.84
2019-02-23T19:24:45.141Z,103097.88
2019-02-23T19:27:17.944Z,103100.06
2019-02-23T19:29:52.888Z,103105.13
2019-02-23T19:32:23.178Z,103093.59
2019-02-23T19:34:56.385Z,103096.17
2019-02-23T19:37:26.591Z,103093.05
2019-02-23T19:39:58.463Z,103092.11
2019-02-23T19:42:29.439Z,103089.90
2019-02-23T19:45:03.558Z,103088.86
2019-02-23T19:47:36.097Z,103086.80
2019-02-23T19:50:17.228Z,103091.42
2019-02-23T19:52:50.276Z,103091.37
2019-02-23T19:55:20.847Z,103096.69
2019-02-23T19:57:52.695Z,103096.03
2019-02-23T20:00:24.932Z,103097.34
2019-02-23T20:02:53.668Z,103099.66
2019-02-23T20:05:22.409Z,103095.48
2019-02-23T20:07:56.380Z,103093.92
2019-02-23T20:10:27.257Z,103086.57
2019-02-23T20:12:56.007Z,103090.19
2019-02-23T20:15:24.872Z,103085.08
2019-02-23T20:17:55.158Z,103088.59
2019-02-23T20:20:25.458Z,103087.59
2019-02-23T20:22:54.180Z,103090.48
2019-02-23T20:25:26.124Z,103099.45
2019-02-23T20:27:59.549Z,103091.57
2019-02-23T20:30:34.701Z,103092.68
2019-02-23T20:33:06.641Z,103096.72
2019-02-23T20:35:38.446Z,103101.35
2019-02-23T20:38:12.068Z,103098.47
2019-02-23T20:40:46.819Z,103106.77
2019-02-23T20:43:19.739Z,103110.22
2019-02-23T20:45:51.752Z,103109.66
2019-02-23T20:48:23.813Z,103109.90
2019-02-23T20:50:56.145Z,103118.44
2019-02-23T20:53:30.499Z,103116.45
2019-02-23T20:56:01.405Z,103122.77
2019-02-23T20:58:33.641Z,103119.29
2019-02-23T21:01:02.706Z,103119.55
2019-02-23T21:03:39.081Z,103125.73
2019-02-23T21:06:09.543Z,103114.25
2019-02-23T21:08:38.355Z,103125.48
2019-02-23T21:11:08.956Z,103122.08
2019-02-23T21:13:39.656Z,103129.83
2019-02-23T21:16:12.765Z,103133.88
2019-02-23T21:18:44.195Z,103133.58
2019-02-23T21:21:14.419Z,103134.27
2019-02-23T21:23:46.813Z,103131.45
2019-02-23T21:26:22.966Z,103131.40
2019-02-23T21:28:53.724Z,103128.22
2019-02-23T21:31:23.853Z,103137.40
2019-02-23T21:33:58.037Z,103139.66
2019-02-23T21:36:28.449Z,103145.09
2019-02-23T21:39:00.423Z,103146.25
2019-02-23T21:41:31.521Z,103147.38
2019-02-23T21:44:05.488Z,103146.19
2019-02-23T21:46:34.499Z,103146.58
2019-02-23T21:49:03.590Z,103145.37
2019-02-23T21:51:36.670Z,103146.00
2019-02-23T21:54:10.153Z,103145.91
2019-02-23T21:56:45.217Z,103150.12
2019-02-23T21:59:22.032Z,103148.72
2019-02-23T22:01:51.020Z,103153.16
2019-02-23T22:04:23.042Z,103150.89
2019-02-23T22:06:52.343Z,103143.55
2019-02-23T22:09:25.630Z,103140.22
2019-02-23T22:11:58.999Z,103142.14
2019-02-23T22:14:29.866Z,103139.64
2019-02-23T22:17:01.795Z,103144.33
2019-02-23T22:19:34.211Z,103154.70
2019-02-23T22:22:03.533Z,103149.59
2019-02-23T22:24:36.385Z,103151.63
2019-02-23T22:27:06.645Z,103145.93
2019-02-23T22:29:37.380Z,103138.11
2019-02-23T22:32:06.242Z,103142.98
2019-02-23T22:34:36.555Z,103139.06
2019-02-23T22:37:10.008Z,103136.98
2019-02-23T22:39:42.517Z,103129.21
2019-02-23T22:42:13.091Z,103130.08
2019-02-23T22:44:45.566Z,103131.04
2019-02-23T22:47:35.425Z,103132.30
2019-02-23T22:50:06.829Z,103130.42
2019-02-23T22:52:37.684Z,103135.21
2019-02-23T22:55:07.106Z,103139.61
2019-02-23T22:57:45.423Z,103143.19
2019-02-23T23:00:18.084Z,103143.37
2019-02-23T23:02:49.852Z,103141.92
2019-02-23T23:05:23.253Z,103148.58
2019-02-23T23:07:56.594Z,103141.67
2019-02-23T23:10:26.856Z,103140.05
2019-02-23T23:13:00.461Z,103139.37
2019-02-23T23:15:34.388Z,103132.66
2019-02-23T23:18:04.959Z,103134.55
2019-02-23T23:20:38.221Z,103134.37
2019-02-23T23:23:10.038Z,103133.44
2019-02-23T23:25:39.398Z,103132.53
2019-02-23T23:28:11.781Z,103125.97
2019-02-23T23:30:41.736Z,103129.45
2019-02-23T23:33:12.315Z,103130.94
2019-02-23T23:35:42.419Z,103123.28
2019-02-23T23:38:13.169Z,103121.55
2019-02-23T23:40:45.667Z,103129.56
2019-02-23T23:43:19.721Z,103129.80
2019-02-23T23:45:50.619Z,103123.39
2019-02-23T23:48:22.767Z,103125.75
2019-02-23T23:50:51.493Z,103121.95
2019-02-23T23:53:21.428Z,103116.16
2019-02-23T23:55:57.635Z,103109.44
2019-02-23T23:58:27.048Z,103115.84
